createdAt,value
2017-12-16T00:01:20.408Z,75.50
2017-12-16T00:03:48.728Z,49.47
2017-12-16T00:06:17.020Z,55.37
2017-12-16T00:08:45.306Z,67.70
2017-12-16T00:11:14.408Z,68.23
2017-12-16T00:13:43.502Z,56.27
2017-12-16T00:16:12.512Z,52.70
2017-12-16T00:18:40.806Z,59.00
2017-12-16T00:21:09.141Z,59.27
2017-12-16T00:23:38.192Z,49.80
2017-12-16T00:26:06.512Z,53.50
2017-12-16T00:28:35.553Z,51.33
2017-12-16T00:31:03.876Z,49.57
2017-12-16T00:33:32.214Z,53.13
2017-12-16T00:36:00.485Z,50.90
2017-12-16T00:38:28.782Z,51.97
2017-12-16T00:40:57.091Z,74.67
2017-12-16T00:43:26.168Z,61.93
2017-12-16T00:45:54.537Z,55.17
2017-12-16T00:48:22.878Z,82.03
2017-12-16T00:50:51.188Z,73.47
2017-12-16T00:53:19.477Z,79.57
2017-12-16T00:55:48.592Z,81.27
2017-12-16T00:58:17.627Z,129.93
2017-12-16T01:00:46.553Z,64.20
2017-12-16T01:03:14.850Z,66.97
2017-12-16T01:05:43.895Z,82.40
2017-12-16T01:08:12.203Z,74.10
2017-12-16T01:10:41.282Z,93.97
2017-12-16T01:13:09.594Z,74.30
2017-12-16T01:15:38.652Z,58.20
2017-12-16T01:18:07.766Z,75.37
2017-12-16T01:20:36.867Z,52.93
2017-12-16T01:23:05.952Z,58.10
2017-12-16T01:25:34.279Z,47.17
2017-12-16T01:28:02.643Z,54.50
2017-12-16T01:30:31.786Z,58.77
2017-12-16T01:33:00.156Z,123.43
2017-12-16T01:35:46.175Z,102.80
2017-12-16T01:38:29.014Z,94.37
2017-12-16T01:40:57.332Z,95.13
2017-12-16T01:43:25.619Z,105.10
2017-12-16T01:45:53.939Z,91.97
2017-12-16T01:48:23.015Z,83.57
2017-12-16T01:50:51.285Z,59.13
2017-12-16T01:53:19.656Z,65.40
2017-12-16T01:55:47.954Z,58.73
2017-12-16T01:58:16.967Z,93.30
2017-12-16T02:00:46.038Z,63.43
2017-12-16T02:03:15.077Z,61.07
2017-12-16T02:05:43.339Z,50.37
2017-12-16T02:08:11.644Z,74.43
2017-12-16T02:10:39.959Z,79.00
2017-12-16T02:13:08.261Z,85.40
2017-12-16T02:15:36.586Z,80.70
2017-12-16T02:18:04.863Z,58.40
2017-12-16T02:20:33.158Z,52.20
2017-12-16T02:23:01.714Z,58.07
2017-12-16T02:25:29.964Z,61.90
2017-12-16T02:27:58.256Z,53.20
2017-12-16T02:30:26.598Z,53.27
2017-12-16T02:32:54.913Z,72.17
2017-12-16T02:35:23.201Z,77.07
2017-12-16T02:37:51.512Z,84.13
2017-12-16T02:40:19.829Z,78.03
2017-12-16T02:42:48.087Z,86.30
2017-12-16T02:45:16.438Z,78.13
2017-12-16T02:47:44.763Z,51.83
2017-12-16T02:50:13.086Z,55.17
2017-12-16T02:52:42.167Z,49.90
2017-12-16T02:55:10.482Z,45.20
2017-12-16T02:57:38.782Z,53.30
2017-12-16T03:00:07.101Z,55.33
2017-12-16T03:02:35.381Z,56.53
2017-12-16T03:05:03.665Z,56.40
2017-12-16T03:07:31.981Z,90.40
2017-12-16T03:10:00.226Z,85.90
2017-12-16T03:12:29.267Z,94.07
2017-12-16T03:14:57.599Z,91.90
2017-12-16T03:17:25.939Z,75.20
2017-12-16T03:19:54.268Z,57.80
2017-12-16T03:22:22.603Z,56.90
2017-12-16T03:24:50.965Z,69.57
2017-12-16T03:27:19.225Z,52.50
2017-12-16T03:29:47.574Z,70.97
2017-12-16T03:32:16.574Z,57.93
2017-12-16T03:34:44.865Z,60.57
2017-12-16T03:37:13.186Z,63.87
2017-12-16T03:39:41.473Z,80.07
2017-12-16T03:42:10.483Z,88.70
2017-12-16T03:44:38.793Z,81.80
2017-12-16T03:47:07.074Z,85.23
2017-12-16T03:49:35.364Z,60.97
2017-12-16T03:52:03.672Z,55.83
2017-12-16T03:54:31.974Z,58.90
2017-12-16T03:57:00.242Z,53.50
2017-12-16T03:59:28.560Z,57.40
2017-12-16T04:01:56.838Z,64.90
2017-12-16T04:04:25.143Z,60.83
2017-12-16T04:06:53.431Z,58.33
2017-12-16T04:09:21.689Z,64.03
2017-12-16T04:11:49.978Z,51.87
2017-12-16T04:14:18.309Z,48.70
2017-12-16T04:16:46.609Z,64.47
2017-12-16T04:19:15.650Z,56.33
2017-12-16T04:21:43.956Z,44.53
2017-12-16T04:24:12.236Z,58.13
2017-12-16T04:26:40.573Z,51.17
2017-12-16T04:29:08.879Z,51.77
2017-12-16T04:31:37.901Z,60.50
2017-12-16T04:34:06.259Z,63.40
2017-12-16T04:36:34.575Z,56.87
2017-12-16T04:39:03.426Z,69.80
2017-12-16T04:41:31.694Z,71.93
2017-12-16T04:44:00.048Z,60.90
2017-12-16T04:46:28.319Z,63.80
2017-12-16T04:48:56.633Z,62.10
2017-12-16T04:51:24.929Z,63.50
2017-12-16T04:53:53.260Z,74.07
2017-12-16T04:56:21.549Z,66.93
2017-12-16T04:58:49.889Z,104.97
2017-12-16T05:01:18.207Z,107.07
2017-12-16T05:03:46.476Z,98.73
2017-12-16T05:06:14.798Z,84.50
2017-12-16T05:08:43.098Z,69.07
2017-12-16T05:11:12.137Z,61.03
2017-12-16T05:13:40.461Z,62.57
2017-12-16T05:16:09.494Z,51.97
2017-12-16T05:18:37.749Z,61.80
2017-12-16T05:21:06.052Z,62.17
2017-12-16T05:23:34.317Z,61.67
2017-12-16T05:26:02.588Z,55.63
2017-12-16T05:28:30.938Z,63.40
2017-12-16T05:31:00.037Z,68.50
2017-12-16T05:33:28.325Z,69.07
2017-12-16T05:35:56.623Z,52.87
2017-12-16T05:38:24.944Z,56.03
2017-12-16T05:40:53.259Z,66.07
2017-12-16T05:43:21.579Z,72.17
2017-12-16T05:45:49.892Z,74.50
2017-12-16T05:48:18.919Z,60.17
2017-12-16T05:50:47.279Z,76.77
2017-12-16T05:53:15.539Z,87.83
2017-12-16T05:55:44.557Z,102.70
2017-12-16T05:58:12.886Z,121.20
2017-12-16T06:00:41.353Z,88.43
2017-12-16T06:03:09.624Z,115.67
2017-12-16T06:05:37.972Z,99.60
2017-12-16T06:08:06.275Z,96.97
2017-12-16T06:10:34.540Z,142.27
2017-12-16T06:13:02.930Z,125.00
2017-12-16T06:15:31.206Z,176.77
2017-12-16T06:17:59.506Z,168.07
2017-12-16T06:20:27.812Z,123.23
2017-12-16T06:22:56.159Z,113.10
2017-12-16T06:25:25.009Z,69.93
2017-12-16T06:27:53.344Z,105.93
2017-12-16T06:30:22.457Z,68.47
2017-12-16T06:32:50.779Z,63.87
2017-12-16T06:35:19.787Z,66.10
2017-12-16T06:37:48.190Z,69.57
2017-12-16T06:40:16.558Z,121.07
2017-12-16T06:42:44.853Z,129.30
2017-12-16T06:45:14.031Z,116.43
2017-12-16T06:47:42.323Z,151.57
2017-12-16T06:50:11.428Z,125.03
2017-12-16T06:52:39.781Z,115.50
2017-12-16T06:55:10.036Z,118.47
2017-12-16T06:57:38.696Z,113.20
2017-12-16T07:00:08.607Z,81.83
2017-12-16T07:02:38.129Z,93.63
2017-12-16T07:05:07.100Z,104.07
2017-12-16T07:07:36.857Z,98.07
2017-12-16T07:10:05.269Z,125.17
2017-12-16T07:12:34.661Z,113.37
2017-12-16T07:15:03.430Z,107.03
2017-12-16T07:17:32.263Z,107.90
2017-12-16T07:20:00.883Z,80.13
2017-12-16T07:22:29.413Z,91.03
2017-12-16T07:24:58.438Z,84.97
2017-12-16T07:27:28.680Z,75.00
2017-12-16T07:29:58.078Z,86.07
2017-12-16T07:32:26.472Z,66.97
2017-12-16T07:34:55.090Z,74.63
2017-12-16T07:37:23.730Z,60.83
2017-12-16T07:39:52.331Z,61.73
2017-12-16T07:42:20.999Z,133.03
2017-12-16T07:44:49.724Z,71.63
2017-12-16T07:47:18.642Z,77.13
2017-12-16T07:49:47.334Z,133.40
2017-12-16T07:52:17.166Z,97.03
2017-12-16T07:54:46.688Z,80.23
2017-12-16T07:57:15.029Z,90.83
2017-12-16T07:59:44.088Z,71.67
2017-12-16T08:02:12.516Z,82.90
2017-12-16T08:04:41.172Z,78.50
2017-12-16T08:07:12.726Z,70.20
2017-12-16T08:09:41.976Z,57.90
2017-12-16T08:12:11.401Z,54.93
2017-12-16T08:14:39.845Z,53.60
2017-12-16T08:17:08.133Z,53.70
2017-12-16T08:19:39.535Z,59.67
2017-12-16T08:22:08.139Z,59.33
2017-12-16T08:24:40.914Z,64.50
2017-12-16T08:27:09.424Z,65.40
2017-12-16T08:29:37.740Z,50.63
2017-12-16T08:32:06.132Z,45.33
2017-12-16T08:34:34.448Z,47.37
2017-12-16T08:37:02.718Z,57.70
2017-12-16T08:39:30.987Z,56.10
2017-12-16T08:41:59.303Z,62.33
2017-12-16T08:44:27.565Z,55.13
2017-12-16T08:46:55.844Z,48.90
2017-12-16T08:49:33.049Z,62.70
2017-12-16T08:52:01.365Z,66.20
2017-12-16T08:54:30.551Z,70.83
2017-12-16T08:56:59.598Z,71.23
2017-12-16T08:59:27.866Z,66.17
2017-12-16T09:01:56.157Z,58.73
2017-12-16T09:04:24.498Z,71.23
2017-12-16T09:06:53.509Z,62.90
2017-12-16T09:09:22.543Z,71.33
2017-12-16T09:11:50.862Z,62.57
2017-12-16T09:14:19.130Z,54.43
2017-12-16T09:16:47.506Z,48.30
2017-12-16T09:19:17.284Z,48.03
2017-12-16T09:21:45.552Z,53.60
2017-12-16T09:24:13.852Z,42.77
2017-12-16T09:26:42.916Z,69.73
2017-12-16T09:29:11.293Z,64.13
2017-12-16T09:31:39.745Z,67.07
2017-12-16T09:34:08.679Z,79.77
2017-12-16T09:36:36.941Z,73.60
2017-12-16T09:39:05.464Z,58.53
2017-12-16T09:41:34.286Z,59.93
2017-12-16T09:44:02.854Z,57.00
2017-12-16T09:46:31.162Z,64.43
2017-12-16T09:48:59.475Z,56.10
2017-12-16T09:51:27.919Z,53.40
2017-12-16T09:53:56.358Z,53.93
2017-12-16T09:56:24.663Z,52.37
2017-12-16T09:58:53.068Z,53.73
2017-12-16T10:01:21.755Z,55.47
2017-12-16T10:03:50.045Z,76.50
2017-12-16T10:06:19.134Z,72.93
2017-12-16T10:08:47.623Z,55.77
2017-12-16T10:11:16.745Z,52.57
2017-12-16T10:13:45.943Z,46.97
2017-12-16T10:16:15.115Z,47.33
2017-12-16T10:18:43.600Z,43.50
2017-12-16T10:21:11.960Z,40.37
2017-12-16T10:23:40.538Z,35.50
2017-12-16T10:26:10.095Z,33.20
2017-12-16T10:28:38.520Z,46.90
2017-12-16T10:31:06.825Z,38.30
2017-12-16T10:33:35.109Z,41.17
2017-12-16T10:36:04.506Z,38.50
2017-12-16T10:38:33.790Z,35.97
2017-12-16T10:41:02.078Z,35.73
2017-12-16T10:43:30.437Z,45.07
2017-12-16T10:45:58.724Z,53.37
2017-12-16T10:48:27.022Z,49.60
2017-12-16T10:50:56.038Z,49.73
2017-12-16T10:53:24.344Z,38.73
2017-12-16T10:55:52.612Z,38.83
2017-12-16T10:58:20.900Z,62.07
2017-12-16T11:00:55.179Z,65.40
2017-12-16T11:03:23.442Z,64.33
2017-12-16T11:05:51.698Z,58.33
2017-12-16T11:08:20.156Z,31.93
2017-12-16T11:10:48.428Z,30.90
2017-12-16T11:13:16.694Z,58.90
2017-12-16T11:15:45.004Z,38.60
2017-12-16T11:18:14.070Z,60.10
2017-12-16T11:20:42.334Z,34.93
2017-12-16T11:23:10.631Z,37.63
2017-12-16T11:25:38.914Z,43.60
2017-12-16T11:28:07.763Z,36.73
2017-12-16T11:30:36.288Z,32.63
2017-12-16T11:33:04.571Z,37.90
2017-12-16T11:35:32.887Z,40.87
2017-12-16T11:38:01.215Z,32.77
2017-12-16T11:40:29.503Z,35.90
2017-12-16T11:42:58.267Z,47.90
2017-12-16T11:45:26.591Z,58.37
2017-12-16T11:47:54.988Z,55.33
2017-12-16T11:50:24.337Z,79.03
2017-12-16T11:52:52.645Z,66.03
2017-12-16T11:55:20.907Z,68.87
2017-12-16T11:57:49.952Z,63.93
2017-12-16T12:00:18.306Z,63.03
2017-12-16T12:02:46.578Z,61.70
2017-12-16T12:05:14.857Z,45.60
2017-12-16T12:07:43.223Z,56.17
2017-12-16T12:10:11.495Z,59.20
2017-12-16T12:12:40.659Z,52.73
2017-12-16T12:15:09.736Z,54.10
2017-12-16T12:17:37.986Z,53.37
2017-12-16T12:20:06.259Z,54.37
2017-12-16T12:22:34.595Z,40.57
2017-12-16T12:25:03.636Z,46.93
2017-12-16T12:27:31.945Z,51.33
2017-12-16T12:30:00.240Z,54.47
2017-12-16T12:32:29.328Z,45.47
2017-12-16T12:34:57.968Z,53.23
2017-12-16T12:37:26.345Z,43.80
2017-12-16T12:39:54.673Z,61.13
2017-12-16T12:42:22.970Z,43.20
2017-12-16T12:44:51.295Z,46.77
2017-12-16T12:47:19.570Z,50.60
2017-12-16T12:49:47.875Z,53.50
2017-12-16T12:52:16.202Z,47.07
2017-12-16T12:54:44.481Z,52.43
2017-12-16T12:57:12.756Z,45.50
2017-12-16T12:59:41.067Z,44.03
2017-12-16T13:02:09.354Z,42.53
2017-12-16T13:04:37.658Z,51.80
2017-12-16T13:07:05.980Z,46.43
2017-12-16T13:09:34.254Z,52.10
2017-12-16T13:12:02.564Z,41.17
2017-12-16T13:14:30.863Z,52.90
2017-12-16T13:16:59.893Z,44.60
2017-12-16T13:19:28.222Z,41.07
2017-12-16T13:21:57.287Z,46.17
2017-12-16T13:24:25.568Z,47.17
2017-12-16T13:26:53.843Z,42.17
2017-12-16T13:29:22.181Z,43.60
2017-12-16T13:31:50.440Z,48.87
2017-12-16T13:34:18.700Z,40.80
2017-12-16T13:36:47.778Z,50.50
2017-12-16T13:39:16.096Z,40.73
2017-12-16T13:41:44.404Z,50.20
2017-12-16T13:44:12.810Z,40.73
2017-12-16T13:46:41.061Z,44.60
2017-12-16T13:49:09.317Z,49.30
2017-12-16T13:51:37.624Z,44.53
2017-12-16T13:54:05.889Z,51.13
2017-12-16T13:56:34.137Z,43.83
2017-12-16T13:59:02.464Z,36.83
2017-12-16T14:01:30.839Z,50.80
2017-12-16T14:03:59.154Z,48.70
2017-12-16T14:06:27.470Z,29.97
2017-12-16T14:08:55.755Z,46.73
2017-12-16T14:11:24.024Z,55.50
2017-12-16T14:13:52.514Z,35.00
2017-12-16T14:16:20.790Z,39.43
2017-12-16T14:18:49.128Z,47.37
2017-12-16T14:21:17.473Z,47.43
2017-12-16T14:23:46.603Z,51.93
2017-12-16T14:26:14.890Z,38.90
2017-12-16T14:28:43.233Z,60.93
2017-12-16T14:31:11.575Z,67.73
2017-12-16T14:33:39.829Z,78.83
2017-12-16T14:36:08.263Z,65.70
2017-12-16T14:38:36.733Z,44.07
2017-12-16T14:41:05.813Z,32.50
2017-12-16T14:43:34.142Z,60.70
2017-12-16T14:46:02.437Z,41.90
2017-12-16T14:48:30.781Z,56.60
2017-12-16T14:50:59.375Z,48.53
2017-12-16T14:53:27.755Z,42.43
2017-12-16T14:55:56.420Z,58.67
2017-12-16T14:58:24.756Z,54.87
2017-12-16T15:00:53.014Z,44.57
2017-12-16T15:03:21.309Z,60.17
2017-12-16T15:05:49.627Z,40.10
2017-12-16T15:08:17.928Z,55.53
2017-12-16T15:10:46.233Z,41.43
2017-12-16T15:13:15.343Z,39.73
2017-12-16T15:15:43.812Z,35.10
2017-12-16T15:18:12.114Z,36.33
2017-12-16T15:20:40.434Z,49.80
2017-12-16T15:23:08.859Z,39.87
2017-12-16T15:25:37.147Z,39.20
2017-12-16T15:28:05.514Z,25.70
2017-12-16T15:30:33.820Z,51.20
2017-12-16T15:33:02.200Z,57.70
2017-12-16T15:35:30.534Z,53.30
2017-12-16T15:37:58.798Z,57.03
2017-12-16T15:40:27.055Z,56.57
2017-12-16T15:42:55.430Z,27.67
2017-12-16T15:45:23.723Z,70.60
2017-12-16T15:47:52.047Z,72.20
2017-12-16T15:50:21.142Z,56.13
2017-12-16T15:52:50.167Z,62.20
2017-12-16T15:55:18.470Z,71.07
2017-12-16T15:57:46.781Z,67.53
2017-12-16T16:00:15.838Z,33.43
2017-12-16T16:02:44.124Z,62.27
2017-12-16T16:05:12.475Z,79.73
2017-12-16T16:07:40.794Z,27.53
2017-12-16T16:10:09.050Z,61.00
2017-12-16T16:12:37.374Z,68.90
2017-12-16T16:15:05.641Z,81.03
2017-12-16T16:17:34.059Z,58.10
2017-12-16T16:20:03.385Z,84.03
2017-12-16T16:22:32.425Z,94.23
2017-12-16T16:25:00.719Z,94.50
2017-12-16T16:27:29.070Z,81.50
2017-12-16T16:29:57.342Z,80.60
2017-12-16T16:32:26.345Z,76.30
2017-12-16T16:34:54.649Z,95.17
2017-12-16T16:37:22.972Z,71.63
2017-12-16T16:39:51.267Z,44.40
2017-12-16T16:42:19.630Z,57.17
2017-12-16T16:44:48.846Z,45.47
2017-12-16T16:47:17.235Z,45.17
2017-12-16T16:49:45.722Z,38.87
2017-12-16T16:52:14.005Z,39.80
2017-12-16T16:54:42.302Z,54.47
2017-12-16T16:57:10.642Z,65.97
2017-12-16T16:59:38.919Z,51.67
2017-12-16T17:02:07.204Z,61.13
2017-12-16T17:04:35.535Z,38.23
2017-12-16T17:07:03.892Z,41.97
2017-12-16T17:09:32.166Z,41.10
2017-12-16T17:12:00.617Z,59.40
2017-12-16T17:14:28.930Z,47.37
2017-12-16T17:16:57.275Z,34.10
2017-12-16T17:19:25.606Z,40.87
2017-12-16T17:21:54.647Z,66.00
2017-12-16T17:24:22.918Z,40.27
2017-12-16T17:26:51.246Z,41.17
2017-12-16T17:29:19.503Z,47.43
2017-12-16T17:31:47.968Z,56.87
2017-12-16T17:34:16.294Z,70.30
2017-12-16T17:36:45.941Z,38.00
2017-12-16T17:39:14.928Z,47.63
2017-12-16T17:41:43.340Z,52.37
2017-12-16T17:44:11.972Z,44.03
2017-12-16T17:46:40.290Z,39.57
2017-12-16T17:49:08.626Z,45.20
2017-12-16T17:51:37.644Z,39.50
2017-12-16T17:54:05.960Z,66.77
2017-12-16T17:56:34.267Z,38.23
2017-12-16T17:59:03.336Z,60.57
2017-12-16T18:01:31.762Z,57.73
2017-12-16T18:04:00.835Z,63.00
2017-12-16T18:06:29.906Z,50.87
2017-12-16T18:08:58.328Z,43.50
2017-12-16T18:11:26.684Z,69.83
2017-12-16T18:13:55.749Z,53.13
2017-12-16T18:16:24.040Z,62.47
2017-12-16T18:18:52.358Z,77.93
2017-12-16T18:21:20.628Z,67.60
2017-12-16T18:23:48.918Z,45.17
2017-12-16T18:26:17.334Z,67.47
2017-12-16T18:28:45.614Z,57.50
2017-12-16T18:31:13.907Z,59.83
2017-12-16T18:33:42.979Z,42.47
2017-12-16T18:36:11.274Z,66.27
2017-12-16T18:38:40.323Z,52.67
2017-12-16T18:41:08.662Z,85.57
2017-12-16T18:43:36.959Z,74.70
2017-12-16T18:46:05.257Z,73.07
2017-12-16T18:48:33.582Z,84.23
2017-12-16T18:51:02.685Z,60.80
2017-12-16T18:53:31.550Z,58.33
2017-12-16T18:55:59.872Z,85.43
2017-12-16T18:58:28.203Z,55.77
2017-12-16T19:00:56.607Z,76.97
2017-12-16T19:03:25.660Z,88.33
2017-12-16T19:05:53.974Z,78.63
2017-12-16T19:08:22.358Z,71.63
2017-12-16T19:10:50.822Z,79.70
2017-12-16T19:13:19.275Z,60.57
2017-12-16T19:15:47.669Z,63.60
2017-12-16T19:18:18.239Z,58.27
2017-12-16T19:20:46.523Z,54.60
2017-12-16T19:23:14.911Z,41.17
2017-12-16T19:25:43.232Z,43.97
2017-12-16T19:28:11.510Z,41.60
2017-12-16T19:30:40.659Z,46.57
2017-12-16T19:33:08.983Z,39.80
2017-12-16T19:35:37.453Z,44.07
2017-12-16T19:38:05.724Z,43.43
2017-12-16T19:40:34.130Z,50.77
2017-12-16T19:43:03.259Z,47.30
2017-12-16T19:45:31.968Z,48.70
2017-12-16T19:48:00.572Z,45.67
2017-12-16T19:50:28.936Z,40.50
2017-12-16T19:52:57.418Z,43.90
2017-12-16T19:55:25.929Z,46.13
2017-12-16T19:57:55.043Z,49.90
2017-12-16T20:00:23.349Z,51.77
2017-12-16T20:02:52.747Z,55.40
2017-12-16T20:05:21.126Z,44.80
2017-12-16T20:07:49.774Z,43.70
2017-12-16T20:10:19.383Z,49.00
2017-12-16T20:12:47.682Z,43.87
2017-12-16T20:15:16.062Z,47.23
2017-12-16T20:17:44.453Z,49.53
2017-12-16T20:20:12.794Z,45.13
2017-12-16T20:22:41.825Z,50.00
2017-12-16T20:25:10.266Z,50.03
2017-12-16T20:27:39.317Z,52.60
2017-12-16T20:30:07.598Z,44.60
2017-12-16T20:32:36.037Z,41.80
2017-12-16T20:35:04.454Z,58.50
2017-12-16T20:37:33.325Z,55.83
2017-12-16T20:40:01.847Z,70.73
2017-12-16T20:42:30.212Z,69.60
2017-12-16T20:44:58.532Z,78.87
2017-12-16T20:47:26.963Z,62.03
2017-12-16T20:49:55.916Z,39.80
2017-12-16T20:52:24.278Z,60.07
2017-12-16T20:54:52.786Z,58.37
2017-12-16T20:57:21.151Z,56.00
2017-12-16T20:59:49.502Z,65.13
2017-12-16T21:02:17.996Z,62.13
2017-12-16T21:04:50.210Z,70.10
2017-12-16T21:07:19.868Z,62.03
2017-12-16T21:09:48.970Z,62.73
2017-12-16T21:12:19.741Z,57.53
2017-12-16T21:14:50.488Z,52.77
2017-12-16T21:17:21.556Z,61.10
2017-12-16T21:19:52.142Z,52.73
2017-12-16T21:22:22.116Z,50.80
2017-12-16T21:24:51.157Z,60.13
2017-12-16T21:27:19.841Z,65.87
2017-12-16T21:29:48.307Z,69.07
2017-12-16T21:32:16.647Z,38.07
2017-12-16T21:34:45.024Z,45.03
2017-12-16T21:37:15.062Z,43.80
2017-12-16T21:39:43.343Z,54.67
2017-12-16T21:42:11.611Z,51.37
2017-12-16T21:44:40.096Z,44.20
2017-12-16T21:47:09.735Z,47.80
2017-12-16T21:49:38.049Z,41.97
2017-12-16T21:52:07.328Z,40.13
2017-12-16T21:54:35.709Z,37.60
2017-12-16T21:57:04.035Z,41.73
2017-12-16T21:59:32.461Z,46.57
2017-12-16T22:02:00.823Z,48.13
2017-12-16T22:04:29.111Z,49.27
2017-12-16T22:06:57.510Z,45.10
2017-12-16T22:09:25.821Z,39.83
2017-12-16T22:11:54.957Z,40.70
2017-12-16T22:14:23.293Z,43.30
2017-12-16T22:16:51.605Z,44.63
2017-12-16T22:19:19.932Z,59.23
2017-12-16T22:21:48.348Z,41.07
2017-12-16T22:24:17.479Z,46.00
2017-12-16T22:26:45.758Z,45.33
2017-12-16T22:29:14.213Z,40.03
2017-12-16T22:31:42.478Z,42.67
2017-12-16T22:34:10.878Z,30.57
2017-12-16T22:36:39.283Z,33.63
2017-12-16T22:39:07.554Z,41.90
2017-12-16T22:41:35.962Z,43.03
2017-12-16T22:44:04.326Z,44.90
2017-12-16T22:46:32.636Z,53.70
2017-12-16T22:49:00.925Z,36.03
2017-12-16T22:51:29.282Z,46.27
2017-12-16T22:53:57.548Z,45.77
2017-12-16T22:56:25.833Z,48.27
2017-12-16T22:58:54.194Z,57.27
2017-12-16T23:01:22.468Z,49.80
2017-12-16T23:03:50.746Z,46.23
2017-12-16T23:06:19.101Z,48.50
2017-12-16T23:08:47.427Z,50.97
2017-12-16T23:11:15.763Z,29.07
2017-12-16T23:13:44.161Z,43.07
2017-12-16T23:16:12.437Z,53.77
2017-12-16T23:18:40.741Z,51.10
2017-12-16T23:21:09.073Z,42.23
2017-12-16T23:23:38.168Z,38.70
2017-12-16T23:26:07.224Z,46.97
2017-12-16T23:28:35.608Z,42.40
2017-12-16T23:31:03.874Z,42.37
2017-12-16T23:33:32.181Z,35.50
2017-12-16T23:36:00.586Z,50.27
2017-12-16T23:38:29.001Z,48.60
2017-12-16T23:40:57.280Z,48.37
2017-12-16T23:43:25.731Z,50.93
2017-12-16T23:45:54.796Z,48.43
2017-12-16T23:48:23.827Z,47.83
2017-12-16T23:50:52.161Z,55.00
2017-12-16T23:53:21.262Z,49.50
2017-12-16T23:55:50.280Z,36.57
2017-12-16T23:58:18.647Z,35.13
